sensor_id;sensor_type;location;lat;lon;timestamp;temperature;humidity
6964;DHT22;3522;50.856;7.278;2024-01-30T00:00:17;7.20;99.90
6964;DHT22;3522;50.856;7.278;2024-01-30T00:02:43;7.20;99.90
6964;DHT22;3522;50.856;7.278;2024-01-30T00:05:11;7.20;99.90
6964;DHT22;3522;50.856;7.278;2024-01-30T00:07:39;7.20;99.90
6964;DHT22;3522;50.856;7.278;2024-01-30T00:10:05;7.20;99.90
6964;DHT22;3522;50.856;7.278;2024-01-30T00:12:32;7.20;99.90
6964;DHT22;3522;50.856;7.278;2024-01-30T00:14:59;7.20;99.90
6964;DHT22;3522;50.856;7.278;2024-01-30T00:17:25;7.10;99.90
6964;DHT22;3522;50.856;7.278;2024-01-30T00:19:52;7.10;99.90
6964;DHT22;3522;50.856;7.278;2024-01-30T00:22:18;7.10;99.90
6964;DHT22;3522;50.856;7.278;2024-01-30T00:24:46;6.90;99.90
6964;DHT22;3522;50.856;7.278;2024-01-30T00:27:13;7.10;99.90
6964;DHT22;3522;50.856;7.278;2024-01-30T00:29:39;7.00;99.90
6964;DHT22;3522;50.856;7.278;2024-01-30T00:32:06;7.00;99.90
6964;DHT22;3522;50.856;7.278;2024-01-30T00:34:33;6.90;99.90
6964;DHT22;3522;50.856;7.278;2024-01-30T00:36:59;6.90;99.90
6964;DHT22;3522;50.856;7.278;2024-01-30T00:39:26;6.90;99.90
6964;DHT22;3522;50.856;7.278;2024-01-30T00:41:54;6.80;99.90
6964;DHT22;3522;50.856;7.278;2024-01-30T00:44:21;6.80;99.90
6964;DHT22;3522;50.856;7.278;2024-01-30T00:46:47;6.80;99.90
6964;DHT22;3522;50.856;7.278;2024-01-30T00:49:14;6.80;99.90
6964;DHT22;3522;50.856;7.278;2024-01-30T00:51:40;6.80;99.90
6964;DHT22;3522;50.856;7.278;2024-01-30T00:54:07;6.80;99.90
6964;DHT22;3522;50.856;7.278;2024-01-30T00:56:34;6.80;99.90
6964;DHT22;3522;50.856;7.278;2024-01-30T00:59:01;6.70;99.90
6964;DHT22;3522;50.856;7.278;2024-01-30T01:01:28;6.70;99.90
6964;DHT22;3522;50.856;7.278;2024-01-30T01:03:55;6.70;99.90
6964;DHT22;3522;50.856;7.278;2024-01-30T01:06:21;6.70;99.90
6964;DHT22;3522;50.856;7.278;2024-01-30T01:08:48;6.80;99.90
6964;DHT22;3522;50.856;7.278;2024-01-30T01:11:14;6.70;99.90
6964;DHT22;3522;50.856;7.278;2024-01-30T01:13:41;6.70;99.90
6964;DHT22;3522;50.856;7.278;2024-01-30T01:16:09;6.70;99.90
6964;DHT22;3522;50.856;7.278;2024-01-30T01:18:35;6.70;99.90
6964;DHT22;3522;50.856;7.278;2024-01-30T01:21:02;6.70;99.90
6964;DHT22;3522;50.856;7.278;2024-01-30T01:23:28;6.70;99.90
6964;DHT22;3522;50.856;7.278;2024-01-30T01:25:55;6.60;99.90
6964;DHT22;3522;50.856;7.278;2024-01-30T01:28:22;6.70;99.90
6964;DHT22;3522;50.856;7.278;2024-01-30T01:30:48;6.60;99.90
6964;DHT22;3522;50.856;7.278;2024-01-30T01:33:16;6.60;99.90
6964;DHT22;3522;50.856;7.278;2024-01-30T01:35:43;6.60;99.90
6964;DHT22;3522;50.856;7.278;2024-01-30T01:38:10;6.60;99.90
6964;DHT22;3522;50.856;7.278;2024-01-30T01:40:37;6.60;99.90
6964;DHT22;3522;50.856;7.278;2024-01-30T01:43:05;6.60;99.90
6964;DHT22;3522;50.856;7.278;2024-01-30T01:45:31;6.60;99.90
6964;DHT22;3522;50.856;7.278;2024-01-30T01:47:58;6.70;99.90
6964;DHT22;3522;50.856;7.278;2024-01-30T01:50:26;6.70;99.90
6964;DHT22;3522;50.856;7.278;2024-01-30T01:52:53;6.70;99.90
6964;DHT22;3522;50.856;7.278;2024-01-30T01:55:20;6.70;99.90
6964;DHT22;3522;50.856;7.278;2024-01-30T01:57:49;6.70;99.90
6964;DHT22;3522;50.856;7.278;2024-01-30T02:00:16;6.70;99.90
6964;DHT22;3522;50.856;7.278;2024-01-30T02:02:43;6.70;99.90
6964;DHT22;3522;50.856;7.278;2024-01-30T02:05:10;6.70;99.90
6964;DHT22;3522;50.856;7.278;2024-01-30T02:07:38;6.60;99.90
6964;DHT22;3522;50.856;7.278;2024-01-30T02:10:05;6.60;99.90
6964;DHT22;3522;50.856;7.278;2024-01-30T02:12:31;6.60;99.90
6964;DHT22;3522;50.856;7.278;2024-01-30T02:14:58;6.60;99.90
6964;DHT22;3522;50.856;7.278;2024-01-30T02:17:25;6.60;99.90
6964;DHT22;3522;50.856;7.278;2024-01-30T02:19:51;6.60;99.90
6964;DHT22;3522;50.856;7.278;2024-01-30T02:22:19;6.60;99.90
6964;DHT22;3522;50.856;7.278;2024-01-30T02:24:46;6.60;99.90
6964;DHT22;3522;50.856;7.278;2024-01-30T02:27:13;6.60;99.90
6964;DHT22;3522;50.856;7.278;2024-01-30T02:29:39;6.60;99.90
6964;DHT22;3522;50.856;7.278;2024-01-30T02:32:06;6.60;99.90
6964;DHT22;3522;50.856;7.278;2024-01-30T02:34:32;6.70;99.90
6964;DHT22;3522;50.856;7.278;2024-01-30T02:36:59;6.60;99.90
6964;DHT22;3522;50.856;7.278;2024-01-30T02:39:27;6.70;99.90
6964;DHT22;3522;50.856;7.278;2024-01-30T02:41:54;6.60;99.90
6964;DHT22;3522;50.856;7.278;2024-01-30T02:44:21;6.60;99.90
6964;DHT22;3522;50.856;7.278;2024-01-30T02:46:47;6.60;99.90
6964;DHT22;3522;50.856;7.278;2024-01-30T02:49:14;6.60;99.90
6964;DHT22;3522;50.856;7.278;2024-01-30T02:51:40;6.60;99.90
6964;DHT22;3522;50.856;7.278;2024-01-30T02:54:07;6.60;99.90
6964;DHT22;3522;50.856;7.278;2024-01-30T02:56:35;6.60;99.90
6964;DHT22;3522;50.856;7.278;2024-01-30T02:59:01;6.60;99.90
6964;DHT22;3522;50.856;7.278;2024-01-30T03:01:28;6.60;99.90
6964;DHT22;3522;50.856;7.278;2024-01-30T03:03:54;6.60;99.90
6964;DHT22;3522;50.856;7.278;2024-01-30T03:06:21;6.60;99.90
6964;DHT22;3522;50.856;7.278;2024-01-30T03:08:48;6.60;99.90
6964;DHT22;3522;50.856;7.278;2024-01-30T03:11:14;6.60;99.90
6964;DHT22;3522;50.856;7.278;2024-01-30T03:13:42;6.60;99.90
6964;DHT22;3522;50.856;7.278;2024-01-30T03:16:09;6.60;99.90
6964;DHT22;3522;50.856;7.278;2024-01-30T03:18:36;6.60;99.90
6964;DHT22;3522;50.856;7.278;2024-01-30T03:21:02;6.60;99.90
6964;DHT22;3522;50.856;7.278;2024-01-30T03:23:29;6.60;99.90
6964;DHT22;3522;50.856;7.278;2024-01-30T03:25:57;6.60;99.90
6964;DHT22;3522;50.856;7.278;2024-01-30T03:28:24;6.60;99.90
6964;DHT22;3522;50.856;7.278;2024-01-30T03:30:52;6.50;99.90
6964;DHT22;3522;50.856;7.278;2024-01-30T03:33:18;6.50;99.90
6964;DHT22;3522;50.856;7.278;2024-01-30T03:35:45;6.60;99.90
6964;DHT22;3522;50.856;7.278;2024-01-30T03:38:11;6.50;99.90
6964;DHT22;3522;50.856;7.278;2024-01-30T03:40:38;6.50;99.90
6964;DHT22;3522;50.856;7.278;2024-01-30T03:43:04;6.60;99.90
6964;DHT22;3522;50.856;7.278;2024-01-30T03:45:31;6.50;99.90
6964;DHT22;3522;50.856;7.278;2024-01-30T03:47:59;6.50;99.90
6964;DHT22;3522;50.856;7.278;2024-01-30T03:50:25;6.50;99.90
6964;DHT22;3522;50.856;7.278;2024-01-30T03:52:53;6.50;99.90
6964;DHT22;3522;50.856;7.278;2024-01-30T03:55:20;6.50;99.90
6964;DHT22;3522;50.856;7.278;2024-01-30T03:57:46;6.60;99.90
6964;DHT22;3522;50.856;7.278;2024-01-30T04:00:14;6.50;99.90
6964;DHT22;3522;50.856;7.278;2024-01-30T04:02:40;6.60;99.90
6964;DHT22;3522;50.856;7.278;2024-01-30T04:05:08;6.60;99.90
6964;DHT22;3522;50.856;7.278;2024-01-30T04:07:35;6.60;99.90
6964;DHT22;3522;50.856;7.278;2024-01-30T04:10:02;6.60;99.90
6964;DHT22;3522;50.856;7.278;2024-01-30T04:12:31;6.60;99.90
6964;DHT22;3522;50.856;7.278;2024-01-30T04:14:57;6.60;99.90
6964;DHT22;3522;50.856;7.278;2024-01-30T04:17:24;6.70;99.90
6964;DHT22;3522;50.856;7.278;2024-01-30T04:19:50;6.70;99.90
6964;DHT22;3522;50.856;7.278;2024-01-30T04:22:18;6.70;99.90
6964;DHT22;3522;50.856;7.278;2024-01-30T04:24:45;6.70;99.90
6964;DHT22;3522;50.856;7.278;2024-01-30T04:27:11;6.70;99.90
6964;DHT22;3522;50.856;7.278;2024-01-30T04:29:38;6.70;99.90
6964;DHT22;3522;50.856;7.278;2024-01-30T04:32:05;6.70;99.90
6964;DHT22;3522;50.856;7.278;2024-01-30T04:34:31;6.70;99.90
6964;DHT22;3522;50.856;7.278;2024-01-30T04:36:58;6.70;99.90
6964;DHT22;3522;50.856;7.278;2024-01-30T04:39:26;6.70;99.90
6964;DHT22;3522;50.856;7.278;2024-01-30T04:41:53;6.70;99.90
6964;DHT22;3522;50.856;7.278;2024-01-30T04:44:19;6.70;99.90
6964;DHT22;3522;50.856;7.278;2024-01-30T04:46:46;6.70;99.90
6964;DHT22;3522;50.856;7.278;2024-01-30T04:49:13;6.70;99.90
6964;DHT22;3522;50.856;7.278;2024-01-30T04:51:39;6.70;99.90
6964;DHT22;3522;50.856;7.278;2024-01-30T04:54:06;6.60;99.90
6964;DHT22;3522;50.856;7.278;2024-01-30T04:56:34;6.60;99.90
6964;DHT22;3522;50.856;7.278;2024-01-30T04:59:01;6.60;99.90
6964;DHT22;3522;50.856;7.278;2024-01-30T05:01:28;6.60;99.90
6964;DHT22;3522;50.856;7.278;2024-01-30T05:03:54;6.60;99.90
6964;DHT22;3522;50.856;7.278;2024-01-30T05:06:24;6.50;99.90
6964;DHT22;3522;50.856;7.278;2024-01-30T05:08:50;6.50;99.90
6964;DHT22;3522;50.856;7.278;2024-01-30T05:11:17;6.50;99.90
6964;DHT22;3522;50.856;7.278;2024-01-30T05:13:45;6.50;99.90
6964;DHT22;3522;50.856;7.278;2024-01-30T05:16:12;6.50;99.90
6964;DHT22;3522;50.856;7.278;2024-01-30T05:18:39;6.50;99.90
6964;DHT22;3522;50.856;7.278;2024-01-30T05:21:05;6.50;99.90
6964;DHT22;3522;50.856;7.278;2024-01-30T05:23:32;6.50;99.90
6964;DHT22;3522;50.856;7.278;2024-01-30T05:25:59;6.40;99.90
6964;DHT22;3522;50.856;7.278;2024-01-30T05:28:26;6.50;99.90
6964;DHT22;3522;50.856;7.278;2024-01-30T05:30:54;6.50;99.90
6964;DHT22;3522;50.856;7.278;2024-01-30T05:33:21;6.40;99.90
6964;DHT22;3522;50.856;7.278;2024-01-30T05:35:47;6.40;99.90
6964;DHT22;3522;50.856;7.278;2024-01-30T05:38:15;6.40;99.90
6964;DHT22;3522;50.856;7.278;2024-01-30T05:40:42;6.40;99.90
6964;DHT22;3522;50.856;7.278;2024-01-30T05:43:08;6.40;99.90
6964;DHT22;3522;50.856;7.278;2024-01-30T05:45:35;6.40;99.90
6964;DHT22;3522;50.856;7.278;2024-01-30T05:48:03;6.40;99.90
6964;DHT22;3522;50.856;7.278;2024-01-30T05:50:30;6.40;99.90
6964;DHT22;3522;50.856;7.278;2024-01-30T05:52:57;6.40;99.90
6964;DHT22;3522;50.856;7.278;2024-01-30T05:55:23;6.40;99.90
6964;DHT22;3522;50.856;7.278;2024-01-30T05:57:50;6.40;99.90
6964;DHT22;3522;50.856;7.278;2024-01-30T06:00:18;6.40;99.90
6964;DHT22;3522;50.856;7.278;2024-01-30T06:02:54;6.40;99.90
6964;DHT22;3522;50.856;7.278;2024-01-30T06:05:22;6.50;99.90
6964;DHT22;3522;50.856;7.278;2024-01-30T06:07:49;6.50;99.90
6964;DHT22;3522;50.856;7.278;2024-01-30T06:10:16;6.50;99.90
6964;DHT22;3522;50.856;7.278;2024-01-30T06:12:43;6.50;99.90
6964;DHT22;3522;50.856;7.278;2024-01-30T06:15:09;6.50;99.90
6964;DHT22;3522;50.856;7.278;2024-01-30T06:17:38;6.60;99.90
6964;DHT22;3522;50.856;7.278;2024-01-30T06:20:05;6.50;99.90
6964;DHT22;3522;50.856;7.278;2024-01-30T06:22:33;6.50;99.90
6964;DHT22;3522;50.856;7.278;2024-01-30T06:24:59;6.50;99.90
6964;DHT22;3522;50.856;7.278;2024-01-30T06:27:26;6.50;99.90
6964;DHT22;3522;50.856;7.278;2024-01-30T06:29:52;6.50;99.90
6964;DHT22;3522;50.856;7.278;2024-01-30T06:32:19;6.50;99.90
6964;DHT22;3522;50.856;7.278;2024-01-30T06:34:46;6.50;99.90
6964;DHT22;3522;50.856;7.278;2024-01-30T06:37:12;6.50;99.90
6964;DHT22;3522;50.856;7.278;2024-01-30T06:39:40;6.50;99.90
6964;DHT22;3522;50.856;7.278;2024-01-30T06:42:07;6.50;99.90
6964;DHT22;3522;50.856;7.278;2024-01-30T06:44:33;6.50;99.90
6964;DHT22;3522;50.856;7.278;2024-01-30T06:47:00;6.40;99.90
6964;DHT22;3522;50.856;7.278;2024-01-30T06:49:26;6.40;99.90
6964;DHT22;3522;50.856;7.278;2024-01-30T06:51:53;6.50;99.90
6964;DHT22;3522;50.856;7.278;2024-01-30T06:54:20;6.40;99.90
6964;DHT22;3522;50.856;7.278;2024-01-30T06:56:48;6.40;99.90
6964;DHT22;3522;50.856;7.278;2024-01-30T06:59:14;6.40;99.90
6964;DHT22;3522;50.856;7.278;2024-01-30T07:01:41;6.50;99.90
6964;DHT22;3522;50.856;7.278;2024-01-30T07:04:07;6.50;99.90
6964;DHT22;3522;50.856;7.278;2024-01-30T07:06:34;6.50;99.90
6964;DHT22;3522;50.856;7.278;2024-01-30T07:09:00;6.50;99.90
6964;DHT22;3522;50.856;7.278;2024-01-30T07:11:28;6.50;99.90
6964;DHT22;3522;50.856;7.278;2024-01-30T07:13:56;6.50;99.90
6964;DHT22;3522;50.856;7.278;2024-01-30T07:16:23;6.60;99.90
6964;DHT22;3522;50.856;7.278;2024-01-30T07:18:49;6.60;99.90
6964;DHT22;3522;50.856;7.278;2024-01-30T07:21:16;6.60;99.90
6964;DHT22;3522;50.856;7.278;2024-01-30T07:23:43;6.60;99.90
6964;DHT22;3522;50.856;7.278;2024-01-30T07:26:09;6.60;99.90
6964;DHT22;3522;50.856;7.278;2024-01-30T07:28:36;6.60;99.90
6964;DHT22;3522;50.856;7.278;2024-01-30T07:31:04;6.60;99.90
6964;DHT22;3522;50.856;7.278;2024-01-30T07:33:31;6.60;99.90
6964;DHT22;3522;50.856;7.278;2024-01-30T07:35:58;6.60;99.90
6964;DHT22;3522;50.856;7.278;2024-01-30T07:38:24;6.60;99.90
6964;DHT22;3522;50.856;7.278;2024-01-30T07:40:51;6.60;99.90
6964;DHT22;3522;50.856;7.278;2024-01-30T07:43:17;6.60;99.90
6964;DHT22;3522;50.856;7.278;2024-01-30T07:45:45;6.60;99.90
6964;DHT22;3522;50.856;7.278;2024-01-30T07:48:13;6.70;99.90
6964;DHT22;3522;50.856;7.278;2024-01-30T07:50:39;6.60;99.90
6964;DHT22;3522;50.856;7.278;2024-01-30T07:53:06;6.70;99.90
6964;DHT22;3522;50.856;7.278;2024-01-30T07:55:33;6.70;99.90
6964;DHT22;3522;50.856;7.278;2024-01-30T07:57:59;6.70;99.90
6964;DHT22;3522;50.856;7.278;2024-01-30T08:00:26;6.80;99.90
6964;DHT22;3522;50.856;7.278;2024-01-30T08:02:54;6.80;99.90
6964;DHT22;3522;50.856;7.278;2024-01-30T08:05:22;6.80;99.90
6964;DHT22;3522;50.856;7.278;2024-01-30T08:07:49;6.80;99.90
6964;DHT22;3522;50.856;7.278;2024-01-30T08:10:16;6.90;99.90
6964;DHT22;3522;50.856;7.278;2024-01-30T08:12:43;6.90;99.90
6964;DHT22;3522;50.856;7.278;2024-01-30T08:15:10;7.00;99.90
6964;DHT22;3522;50.856;7.278;2024-01-30T08:17:37;7.00;99.90
6964;DHT22;3522;50.856;7.278;2024-01-30T08:20:04;7.00;99.90
6964;DHT22;3522;50.856;7.278;2024-01-30T08:22:32;7.10;99.90
6964;DHT22;3522;50.856;7.278;2024-01-30T08:24:59;7.10;99.90
6964;DHT22;3522;50.856;7.278;2024-01-30T08:27:26;7.10;99.90
6964;DHT22;3522;50.856;7.278;2024-01-30T08:29:52;7.20;99.90
6964;DHT22;3522;50.856;7.278;2024-01-30T08:32:19;7.20;99.90
6964;DHT22;3522;50.856;7.278;2024-01-30T08:34:45;7.20;99.90
6964;DHT22;3522;50.856;7.278;2024-01-30T08:37:12;7.30;99.90
6964;DHT22;3522;50.856;7.278;2024-01-30T08:39:43;7.30;99.90
6964;DHT22;3522;50.856;7.278;2024-01-30T08:42:09;7.30;99.90
6964;DHT22;3522;50.856;7.278;2024-01-30T08:44:36;7.30;99.90
6964;DHT22;3522;50.856;7.278;2024-01-30T08:47:03;7.30;99.90
6964;DHT22;3522;50.856;7.278;2024-01-30T08:49:30;7.40;99.90
6964;DHT22;3522;50.856;7.278;2024-01-30T08:51:57;7.40;99.90
6964;DHT22;3522;50.856;7.278;2024-01-30T08:54:23;7.40;99.90
6964;DHT22;3522;50.856;7.278;2024-01-30T08:56:51;7.40;99.90
6964;DHT22;3522;50.856;7.278;2024-01-30T08:59:18;7.50;99.90
6964;DHT22;3522;50.856;7.278;2024-01-30T09:01:45;7.50;99.90
6964;DHT22;3522;50.856;7.278;2024-01-30T09:04:13;7.50;99.90
6964;DHT22;3522;50.856;7.278;2024-01-30T09:06:39;7.60;99.90
6964;DHT22;3522;50.856;7.278;2024-01-30T09:09:06;7.60;99.90
6964;DHT22;3522;50.856;7.278;2024-01-30T09:11:32;7.60;99.90
6964;DHT22;3522;50.856;7.278;2024-01-30T09:14:02;7.70;99.90
6964;DHT22;3522;50.856;7.278;2024-01-30T09:16:29;7.80;99.90
6964;DHT22;3522;50.856;7.278;2024-01-30T09:18:55;7.80;99.90
6964;DHT22;3522;50.856;7.278;2024-01-30T09:21:22;7.90;99.90
6964;DHT22;3522;50.856;7.278;2024-01-30T09:23:49;8.00;99.90
6964;DHT22;3522;50.856;7.278;2024-01-30T09:26:15;8.10;99.90
6964;DHT22;3522;50.856;7.278;2024-01-30T09:28:42;8.10;99.90
6964;DHT22;3522;50.856;7.278;2024-01-30T09:31:10;8.20;99.90
6964;DHT22;3522;50.856;7.278;2024-01-30T09:33:37;8.20;99.90
6964;DHT22;3522;50.856;7.278;2024-01-30T09:36:05;8.20;99.90
6964;DHT22;3522;50.856;7.278;2024-01-30T09:38:31;8.30;99.90
6964;DHT22;3522;50.856;7.278;2024-01-30T09:40:58;8.30;99.90
6964;DHT22;3522;50.856;7.278;2024-01-30T09:43:30;8.30;99.90
6964;DHT22;3522;50.856;7.278;2024-01-30T09:45:59;8.40;99.90
6964;DHT22;3522;50.856;7.278;2024-01-30T09:48:27;8.50;99.90
6964;DHT22;3522;50.856;7.278;2024-01-30T09:50:55;8.50;99.90
6964;DHT22;3522;50.856;7.278;2024-01-30T09:53:23;8.70;99.90
6964;DHT22;3522;50.856;7.278;2024-01-30T09:55:50;8.90;99.90
6964;DHT22;3522;50.856;7.278;2024-01-30T09:58:17;9.10;99.90
6964;DHT22;3522;50.856;7.278;2024-01-30T10:00:43;9.20;99.90
6964;DHT22;3522;50.856;7.278;2024-01-30T10:03:10;9.40;99.90
6964;DHT22;3522;50.856;7.278;2024-01-30T10:05:37;9.60;99.90
6964;DHT22;3522;50.856;7.278;2024-01-30T10:08:06;9.70;99.90
6964;DHT22;3522;50.856;7.278;2024-01-30T10:10:34;9.80;99.90
6964;DHT22;3522;50.856;7.278;2024-01-30T10:13:00;9.90;99.90
6964;DHT22;3522;50.856;7.278;2024-01-30T10:15:27;10.00;99.90
6964;DHT22;3522;50.856;7.278;2024-01-30T10:17:54;10.00;99.90
6964;DHT22;3522;50.856;7.278;2024-01-30T10:20:21;10.00;99.90
6964;DHT22;3522;50.856;7.278;2024-01-30T10:22:49;10.00;99.90
6964;DHT22;3522;50.856;7.278;2024-01-30T10:25:17;10.00;99.90
6964;DHT22;3522;50.856;7.278;2024-01-30T10:27:44;10.00;99.90
6964;DHT22;3522;50.856;7.278;2024-01-30T10:30:10;10.00;99.90
6964;DHT22;3522;50.856;7.278;2024-01-30T10:32:37;10.10;99.90
6964;DHT22;3522;50.856;7.278;2024-01-30T10:35:04;10.20;99.90
6964;DHT22;3522;50.856;7.278;2024-01-30T10:37:30;10.20;99.90
6964;DHT22;3522;50.856;7.278;2024-01-30T10:40:00;10.30;99.90
6964;DHT22;3522;50.856;7.278;2024-01-30T10:42:29;10.30;99.90
6964;DHT22;3522;50.856;7.278;2024-01-30T10:44:59;10.30;99.90
6964;DHT22;3522;50.856;7.278;2024-01-30T10:47:26;10.40;99.90
6964;DHT22;3522;50.856;7.278;2024-01-30T10:49:54;10.40;99.90
6964;DHT22;3522;50.856;7.278;2024-01-30T10:52:21;10.50;99.90
6964;DHT22;3522;50.856;7.278;2024-01-30T10:54:50;10.50;99.90
6964;DHT22;3522;50.856;7.278;2024-01-30T10:57:18;10.60;99.90
6964;DHT22;3522;50.856;7.278;2024-01-30T10:59:45;10.60;99.90
6964;DHT22;3522;50.856;7.278;2024-01-30T11:02:13;10.60;99.90
6964;DHT22;3522;50.856;7.278;2024-01-30T11:04:40;10.60;99.90
6964;DHT22;3522;50.856;7.278;2024-01-30T11:07:14;10.60;99.90
6964;DHT22;3522;50.856;7.278;2024-01-30T11:09:40;10.60;99.90
6964;DHT22;3522;50.856;7.278;2024-01-30T11:12:12;10.60;99.90
6964;DHT22;3522;50.856;7.278;2024-01-30T11:14:40;10.70;99.90
6964;DHT22;3522;50.856;7.278;2024-01-30T11:17:06;10.60;99.90
6964;DHT22;3522;50.856;7.278;2024-01-30T11:19:33;10.60;99.90
6964;DHT22;3522;50.856;7.278;2024-01-30T11:21:59;10.60;99.90
6964;DHT22;3522;50.856;7.278;2024-01-30T11:24:26;10.60;99.90
6964;DHT22;3522;50.856;7.278;2024-01-30T11:26:55;10.60;99.90
6964;DHT22;3522;50.856;7.278;2024-01-30T11:29:24;10.60;99.90
6964;DHT22;3522;50.856;7.278;2024-01-30T11:31:55;10.60;99.90
6964;DHT22;3522;50.856;7.278;2024-01-30T11:34:22;10.70;99.90
6964;DHT22;3522;50.856;7.278;2024-01-30T11:36:51;10.80;99.90
6964;DHT22;3522;50.856;7.278;2024-01-30T11:39:20;10.70;99.90
6964;DHT22;3522;50.856;7.278;2024-01-30T11:41:47;10.80;99.90
6964;DHT22;3522;50.856;7.278;2024-01-30T11:44:15;10.70;99.90
6964;DHT22;3522;50.856;7.278;2024-01-30T11:46:41;10.70;99.90
6964;DHT22;3522;50.856;7.278;2024-01-30T11:49:09;10.70;99.90
6964;DHT22;3522;50.856;7.278;2024-01-30T11:51:36;10.70;99.90
6964;DHT22;3522;50.856;7.278;2024-01-30T11:54:02;10.70;99.90
6964;DHT22;3522;50.856;7.278;2024-01-30T11:56:29;10.70;99.90
6964;DHT22;3522;50.856;7.278;2024-01-30T11:58:55;10.70;99.90
6964;DHT22;3522;50.856;7.278;2024-01-30T12:01:22;10.80;99.90
6964;DHT22;3522;50.856;7.278;2024-01-30T12:03:49;10.80;99.90
6964;DHT22;3522;50.856;7.278;2024-01-30T12:06:17;10.80;99.90
6964;DHT22;3522;50.856;7.278;2024-01-30T12:08:54;10.90;99.90
6964;DHT22;3522;50.856;7.278;2024-01-30T12:11:21;11.00;99.90
6964;DHT22;3522;50.856;7.278;2024-01-30T12:13:47;11.10;99.90
6964;DHT22;3522;50.856;7.278;2024-01-30T12:16:14;11.20;99.90
6964;DHT22;3522;50.856;7.278;2024-01-30T12:18:40;11.30;99.90
6964;DHT22;3522;50.856;7.278;2024-01-30T12:21:07;11.30;99.90
6964;DHT22;3522;50.856;7.278;2024-01-30T12:23:35;11.40;99.90
6964;DHT22;3522;50.856;7.278;2024-01-30T12:26:02;11.50;99.90
6964;DHT22;3522;50.856;7.278;2024-01-30T12:28:32;11.70;99.90
6964;DHT22;3522;50.856;7.278;2024-01-30T12:31:01;11.90;99.90
6964;DHT22;3522;50.856;7.278;2024-01-30T12:33:28;11.90;99.90
6964;DHT22;3522;50.856;7.278;2024-01-30T12:35:55;12.00;99.90
6964;DHT22;3522;50.856;7.278;2024-01-30T12:38:22;12.00;99.90
6964;DHT22;3522;50.856;7.278;2024-01-30T12:40:52;12.00;99.90
6964;DHT22;3522;50.856;7.278;2024-01-30T12:43:20;12.20;99.90
6964;DHT22;3522;50.856;7.278;2024-01-30T12:45:47;12.30;99.90
6964;DHT22;3522;50.856;7.278;2024-01-30T12:48:13;12.20;99.90
6964;DHT22;3522;50.856;7.278;2024-01-30T12:50:41;12.20;99.90
6964;DHT22;3522;50.856;7.278;2024-01-30T12:53:10;12.20;99.90
6964;DHT22;3522;50.856;7.278;2024-01-30T12:55:37;12.20;99.90
6964;DHT22;3522;50.856;7.278;2024-01-30T12:58:05;12.10;99.90
6964;DHT22;3522;50.856;7.278;2024-01-30T13:00:32;12.00;99.90
6964;DHT22;3522;50.856;7.278;2024-01-30T13:02:59;12.00;99.90
6964;DHT22;3522;50.856;7.278;2024-01-30T13:05:26;12.10;99.90
6964;DHT22;3522;50.856;7.278;2024-01-30T13:07:52;12.10;99.90
6964;DHT22;3522;50.856;7.278;2024-01-30T13:10:19;12.10;99.90
6964;DHT22;3522;50.856;7.278;2024-01-30T13:12:46;12.10;99.90
6964;DHT22;3522;50.856;7.278;2024-01-30T13:15:14;12.10;99.90
6964;DHT22;3522;50.856;7.278;2024-01-30T13:17:40;12.30;99.90
6964;DHT22;3522;50.856;7.278;2024-01-30T13:20:08;12.20;99.90
6964;DHT22;3522;50.856;7.278;2024-01-30T13:22:35;12.20;99.90
6964;DHT22;3522;50.856;7.278;2024-01-30T13:25:04;12.20;99.90
6964;DHT22;3522;50.856;7.278;2024-01-30T13:27:30;12.20;99.90
6964;DHT22;3522;50.856;7.278;2024-01-30T13:29:57;12.20;99.90
6964;DHT22;3522;50.856;7.278;2024-01-30T13:32:25;12.20;99.90
6964;DHT22;3522;50.856;7.278;2024-01-30T13:34:51;12.20;99.90
6964;DHT22;3522;50.856;7.278;2024-01-30T13:37:18;12.20;99.90
6964;DHT22;3522;50.856;7.278;2024-01-30T13:39:44;12.20;99.90
6964;DHT22;3522;50.856;7.278;2024-01-30T13:42:11;12.10;99.90
6964;DHT22;3522;50.856;7.278;2024-01-30T13:44:38;12.10;99.90
6964;DHT22;3522;50.856;7.278;2024-01-30T13:47:04;12.10;99.90
6964;DHT22;3522;50.856;7.278;2024-01-30T13:49:32;12.10;99.90
6964;DHT22;3522;50.856;7.278;2024-01-30T13:51:59;12.00;99.90
6964;DHT22;3522;50.856;7.278;2024-01-30T13:54:25;11.90;99.90
6964;DHT22;3522;50.856;7.278;2024-01-30T13:56:52;11.90;99.90
6964;DHT22;3522;50.856;7.278;2024-01-30T13:59:18;11.80;99.90
6964;DHT22;3522;50.856;7.278;2024-01-30T14:01:49;11.70;99.90
6964;DHT22;3522;50.856;7.278;2024-01-30T14:04:16;11.60;99.90
6964;DHT22;3522;50.856;7.278;2024-01-30T14:06:44;11.60;99.90
6964;DHT22;3522;50.856;7.278;2024-01-30T14:09:11;11.50;99.90
6964;DHT22;3522;50.856;7.278;2024-01-30T14:11:40;11.50;99.90
6964;DHT22;3522;50.856;7.278;2024-01-30T14:14:08;11.50;99.90
6964;DHT22;3522;50.856;7.278;2024-01-30T14:16:35;11.40;99.90
6964;DHT22;3522;50.856;7.278;2024-01-30T14:19:01;11.30;99.90
6964;DHT22;3522;50.856;7.278;2024-01-30T14:21:31;11.30;99.90
6964;DHT22;3522;50.856;7.278;2024-01-30T14:23:59;11.20;99.90
6964;DHT22;3522;50.856;7.278;2024-01-30T14:26:25;11.30;99.90
6964;DHT22;3522;50.856;7.278;2024-01-30T14:28:52;11.20;99.90
6964;DHT22;3522;50.856;7.278;2024-01-30T14:31:20;11.20;99.90
6964;DHT22;3522;50.856;7.278;2024-01-30T14:33:49;11.20;99.90
6964;DHT22;3522;50.856;7.278;2024-01-30T14:36:18;11.20;99.90
6964;DHT22;3522;50.856;7.278;2024-01-30T14:38:45;11.20;99.90
6964;DHT22;3522;50.856;7.278;2024-01-30T14:41:13;11.20;99.90
6964;DHT22;3522;50.856;7.278;2024-01-30T14:43:40;11.20;99.90
6964;DHT22;3522;50.856;7.278;2024-01-30T14:46:06;11.10;99.90
6964;DHT22;3522;50.856;7.278;2024-01-30T14:48:33;11.10;99.90
6964;DHT22;3522;50.856;7.278;2024-01-30T14:51:00;11.10;99.90
6964;DHT22;3522;50.856;7.278;2024-01-30T14:53:26;11.10;99.90
6964;DHT22;3522;50.856;7.278;2024-01-30T14:55:53;11.10;99.90
6964;DHT22;3522;50.856;7.278;2024-01-30T14:58:21;11.00;99.90
6964;DHT22;3522;50.856;7.278;2024-01-30T15:00:47;11.00;99.90
6964;DHT22;3522;50.856;7.278;2024-01-30T15:03:14;11.10;99.90
6964;DHT22;3522;50.856;7.278;2024-01-30T15:05:40;11.10;99.90
6964;DHT22;3522;50.856;7.278;2024-01-30T15:08:07;11.10;99.90
6964;DHT22;3522;50.856;7.278;2024-01-30T15:10:34;11.10;99.90
6964;DHT22;3522;50.856;7.278;2024-01-30T15:13:00;11.10;99.90
6964;DHT22;3522;50.856;7.278;2024-01-30T15:15:28;11.20;99.90
6964;DHT22;3522;50.856;7.278;2024-01-30T15:17:56;11.10;99.90
6964;DHT22;3522;50.856;7.278;2024-01-30T15:20:23;11.20;99.90
6964;DHT22;3522;50.856;7.278;2024-01-30T15:22:49;11.20;99.90
6964;DHT22;3522;50.856;7.278;2024-01-30T15:25:16;11.10;99.90
6964;DHT22;3522;50.856;7.278;2024-01-30T15:27:45;11.10;99.90
6964;DHT22;3522;50.856;7.278;2024-01-30T15:30:12;11.10;99.90
6964;DHT22;3522;50.856;7.278;2024-01-30T15:32:40;11.00;99.90
6964;DHT22;3522;50.856;7.278;2024-01-30T15:35:07;11.10;99.90
6964;DHT22;3522;50.856;7.278;2024-01-30T15:37:34;11.00;99.90
6964;DHT22;3522;50.856;7.278;2024-01-30T15:40:01;11.00;99.90
6964;DHT22;3522;50.856;7.278;2024-01-30T15:42:28;10.90;99.90
6964;DHT22;3522;50.856;7.278;2024-01-30T15:44:54;10.90;99.90
6964;DHT22;3522;50.856;7.278;2024-01-30T15:47:21;10.90;99.90
6964;DHT22;3522;50.856;7.278;2024-01-30T15:49:49;10.80;99.90
6964;DHT22;3522;50.856;7.278;2024-01-30T15:52:15;10.80;99.90
6964;DHT22;3522;50.856;7.278;2024-01-30T15:54:43;10.70;99.90
6964;DHT22;3522;50.856;7.278;2024-01-30T15:57:09;10.70;99.90
6964;DHT22;3522;50.856;7.278;2024-01-30T15:59:36;10.70;99.90
6964;DHT22;3522;50.856;7.278;2024-01-30T16:02:03;10.60;99.90
6964;DHT22;3522;50.856;7.278;2024-01-30T16:04:32;10.60;99.90
6964;DHT22;3522;50.856;7.278;2024-01-30T16:07:00;10.60;99.90
6964;DHT22;3522;50.856;7.278;2024-01-30T16:09:26;10.60;99.90